Time;durP1;ratioP1;P1;durP2;ratioP2;P2;SDS_P1;SDS_P2;PMS_P1;PMS_P2;Temp;Humidity;BMP_temperature;BMP_pressure;BME280_temperature;BME280_humidity;BME280_pressure;Samples;Min_cycle;Max_cycle;Signal;HPM_P1;HPM_P2
2023/10/09 00:01:04;;;;;;;1.63;1.52;;;14.40;99.90;;;;;;5102300;28;20085;-83
2023/10/09 00:03:30;;;;;;;1.58;1.48;;;14.50;99.90;;;;;;5096268;28;20048;-84
2023/10/09 00:05:55;;;;;;;1.60;1.50;;;14.30;99.90;;;;;;5100573;28;20035;-85
2023/10/09 00:08:21;;;;;;;1.60;1.50;;;14.40;99.90;;;;;;5098678;28;20039;-83
2023/10/09 00:10:52;;;;;;;1.60;1.50;;;14.40;99.90;;;;;;5102414;28;20067;-82
2023/10/09 00:13:19;;;;;;;1.60;1.50;;;14.40;99.90;;;;;;5096900;28;20063;-82
2023/10/09 00:15:53;;;;;;;1.60;1.50;;;14.40;99.90;;;;;;5107426;27;20054;-82
2023/10/09 00:18:28;;;;;;;1.70;1.60;;;14.40;99.90;;;;;;5106582;27;20443;-82
2023/10/09 00:20:54;;;;;;;1.50;1.40;;;14.30;99.90;;;;;;5097802;27;20085;-83
2023/10/09 00:23:23;;;;;;;1.60;1.50;;;14.30;99.90;;;;;;5113257;27;20051;-83
2023/10/09 00:26:43;;;;;;;1.60;1.50;;;14.40;99.90;;;;;;5107838;27;20162;-83
2023/10/09 00:28:43;;;;;;;1.60;1.50;;;14.50;99.90;;;;;;5104779;27;20051;-83
2023/10/09 00:31:14;;;;;;;1.50;1.40;;;14.40;99.90;;;;;;5090335;28;20067;-83
2023/10/09 00:33:41;;;;;;;1.50;1.40;;;14.50;99.90;;;;;;5086374;28;20637;-85
2023/10/09 00:36:10;;;;;;;1.60;1.50;;;14.40;99.90;;;;;;5083678;28;20089;-83
2023/10/09 00:39:20;;;;;;;1.60;1.50;;;14.40;99.90;;;;;;5101983;28;20445;-82
2023/10/09 00:41:35;;;;;;;1.48;1.40;;;14.60;99.90;;;;;;5101175;27;20048;-85
2023/10/09 00:44:00;;;;;;;1.50;1.40;;;14.40;99.90;;;;;;5111415;27;20043;-82
2023/10/09 00:46:27;;;;;;;1.50;1.40;;;14.50;99.90;;;;;;5099821;27;20051;-82
2023/10/09 00:49:01;;;;;;;1.50;1.40;;;14.40;99.90;;;;;;5116411;27;20050;-83
2023/10/09 00:51:34;;;;;;;1.60;1.50;;;14.60;99.90;;;;;;5102340;27;20039;-83
2023/10/09 00:54:07;;;;;;;1.60;1.50;;;14.40;99.90;;;;;;5104797;27;20044;-83
2023/10/09 00:56:58;;;;;;;1.63;1.52;;;14.40;99.90;;;;;;5107246;27;20381;-84
2023/10/09 00:59:21;;;;;;;1.60;1.50;;;14.30;99.90;;;;;;5104188;27;20060;-85
2023/10/09 01:01:56;;;;;;;1.60;1.50;;;14.40;99.90;;;;;;5108935;27;20633;-83
2023/10/09 01:04:25;;;;;;;1.60;1.50;;;14.40;99.90;;;;;;5101094;27;20056;-84
2023/10/09 01:07:08;;;;;;;1.58;1.48;;;14.30;99.90;;;;;;5079588;27;20050;-83
2023/10/09 01:09:38;;;;;;;1.60;1.50;;;14.30;99.90;;;;;;5106675;27;20564;-84
2023/10/09 01:12:04;;;;;;;1.55;1.45;;;14.50;99.90;;;;;;5104170;27;20119;-84
2023/10/09 01:14:36;;;;;;;1.63;1.52;;;14.50;99.90;;;;;;5097756;28;20075;-85
2023/10/09 01:17:08;;;;;;;1.70;1.60;;;14.40;99.90;;;;;;5101941;27;20039;-84
2023/10/09 01:19:34;;;;;;;1.65;1.55;;;14.50;99.90;;;;;;5096067;27;20055;-83
2023/10/09 01:22:16;;;;;;;1.67;1.58;;;14.30;99.90;;;;;;5086711;28;20048;-83
2023/10/09 01:24:43;;;;;;;1.60;1.50;;;14.40;99.90;;;;;;5111471;27;20043;-84
2023/10/09 01:27:15;;;;;;;1.65;1.55;;;14.40;99.90;;;;;;5098900;27;20051;-84
2023/10/09 01:29:45;;;;;;;1.67;1.58;;;14.40;99.90;;;;;;5100319;27;20440;-84
2023/10/09 01:32:19;;;;;;;1.75;1.65;;;14.50;99.90;;;;;;5089306;28;20043;-85
2023/10/09 01:34:49;;;;;;;1.90;1.80;;;14.30;99.90;;;;;;5078221;28;20040;-85
2023/10/09 01:37:19;;;;;;;1.55;1.45;;;14.30;99.90;;;;;;5082015;27;20035;-83
2023/10/09 01:40:24;;;;;;;1.70;1.60;;;14.50;99.90;;;;;;5102358;27;20685;-84
2023/10/09 01:42:45;;;;;;;1.70;1.60;;;14.40;99.90;;;;;;5104912;27;20047;-83
2023/10/09 01:45:41;;;;;;;1.80;1.70;;;14.40;99.90;;;;;;5101411;27;20058;-84
2023/10/09 01:47:58;;;;;;;1.80;1.70;;;14.60;99.90;;;;;;5105467;27;20054;-84
2023/10/09 01:50:30;;;;;;;1.80;1.70;;;14.30;99.90;;;;;;5111066;27;20444;-83
2023/10/09 01:52:56;;;;;;;1.83;1.73;;;14.60;99.90;;;;;;5107903;27;20674;-84
2023/10/09 01:55:29;;;;;;;1.58;1.48;;;14.50;99.90;;;;;;5102322;27;20048;-84
2023/10/09 01:58:01;;;;;;;1.75;1.65;;;14.30;99.90;;;;;;5102060;27;20058;-84
2023/10/09 02:00:29;;;;;;;1.65;1.55;;;14.60;99.90;;;;;;5117079;27;20579;-84
2023/10/09 02:03:02;;;;;;;1.65;1.55;;;14.50;99.90;;;;;;5102817;27;20086;-84
2023/10/09 02:05:33;;;;;;;1.63;1.52;;;14.50;99.90;;;;;;5102192;27;22031;-83
2023/10/09 02:07:59;;;;;;;1.58;1.48;;;14.50;99.90;;;;;;5115008;27;20039;-83
2023/10/09 02:12:59;;;;;;;1.73;1.63;;;14.30;99.90;;;;;;5121798;27;20050;-85
2023/10/09 02:23:40;;;;;;;1.52;1.42;;;14.20;99.90;;;;;;5093303;27;20502;-84
2023/10/09 02:26:07;;;;;;;1.40;1.38;;;14.50;99.90;;;;;;5114002;27;20043;-83
2023/10/09 02:28:34;;;;;;;1.50;1.40;;;14.20;99.90;;;;;;5119743;27;20043;-83
2023/10/09 02:31:09;;;;;;;1.60;1.50;;;14.20;99.90;;;;;;5118561;27;20039;-83
2023/10/09 02:33:36;;;;;;;1.58;1.48;;;14.30;99.90;;;;;;5101017;27;20035;-85
2023/10/09 02:36:05;;;;;;;1.73;1.63;;;14.40;99.90;;;;;;5107805;27;20456;-83
2023/10/09 02:38:35;;;;;;;1.70;1.60;;;14.20;99.90;;;;;;5125614;27;20400;-84
2023/10/09 02:41:17;;;;;;;1.45;1.40;;;14.40;99.90;;;;;;5108065;27;20046;-84
2023/10/09 02:43:55;;;;;;;1.52;1.42;;;14.30;99.90;;;;;;5115219;27;20050;-84
2023/10/09 02:46:28;;;;;;;1.63;1.52;;;14.10;99.90;;;;;;5114410;27;20043;-83
2023/10/09 02:48:56;;;;;;;1.70;1.60;;;14.30;99.90;;;;;;5099124;27;20260;-84
2023/10/09 02:53:57;;;;;;;1.67;1.58;;;14.40;99.90;;;;;;5097637;27;20042;-83
2023/10/09 02:59:21;;;;;;;1.85;1.75;;;14.20;99.90;;;;;;5075786;27;20684;-84
2023/10/09 03:01:48;;;;;;;2.53;2.40;;;14.30;99.90;;;;;;5077153;28;20054;-83
2023/10/09 03:04:15;;;;;;;1.70;1.60;;;14.20;99.90;;;;;;5109522;27;20049;-85
2023/10/09 03:06:59;;;;;;;1.70;1.60;;;14.20;99.90;;;;;;5100843;27;20047;-84
2023/10/09 03:09:27;;;;;;;1.70;1.60;;;14.40;99.90;;;;;;5100642;27;20075;-84
2023/10/09 03:12:05;;;;;;;1.60;1.50;;;14.50;99.90;;;;;;5107631;27;20057;-83
2023/10/09 03:14:38;;;;;;;1.70;1.60;;;14.40;99.90;;;;;;5106752;27;20062;-83
2023/10/09 03:17:04;;;;;;;1.77;1.67;;;14.50;99.90;;;;;;5104264;27;20066;-84
2023/10/09 03:19:38;;;;;;;1.80;1.70;;;14.50;99.90;;;;;;5105745;27;20043;-84
2023/10/09 03:22:10;;;;;;;1.77;1.67;;;14.40;99.90;;;;;;5099391;28;20512;-84
2023/10/09 03:24:41;;;;;;;1.85;1.75;;;14.80;99.90;;;;;;5086433;27;20035;-84
2023/10/09 03:27:07;;;;;;;2.00;1.90;;;14.70;99.90;;;;;;5095726;27;20047;-84
2023/10/09 03:29:33;;;;;;;1.75;1.65;;;14.90;99.90;;;;;;5110558;27;20055;-84
2023/10/09 03:32:00;;;;;;;1.73;1.63;;;14.70;99.90;;;;;;5078226;27;20031;-85
2023/10/09 03:34:25;;;;;;;1.73;1.63;;;14.70;99.90;;;;;;5087928;27;20047;-83
2023/10/09 03:37:03;;;;;;;1.67;1.58;;;14.90;99.90;;;;;;5104794;27;20047;-83
2023/10/09 03:39:34;;;;;;;1.63;1.52;;;14.70;99.90;;;;;;5107563;27;20043;-84
2023/10/09 03:42:03;;;;;;;1.65;1.55;;;15.10;99.90;;;;;;5106965;27;20070;-84
2023/10/09 03:44:30;;;;;;;1.60;1.50;;;15.00;99.90;;;;;;5082593;28;20039;-83
2023/10/09 03:46:59;;;;;;;1.70;1.60;;;14.80;99.90;;;;;;5091760;28;20047;-82
2023/10/09 03:49:26;;;;;;;1.60;1.50;;;15.30;99.90;;;;;;5110866;27;20553;-85
2023/10/09 03:51:52;;;;;;;1.48;1.40;;;15.30;99.90;;;;;;5098150;27;20071;-86
2023/10/09 03:54:22;;;;;;;1.55;1.45;;;15.20;99.90;;;;;;5083172;27;20408;-85
2023/10/09 03:56:54;;;;;;;1.50;1.40;;;15.10;99.90;;;;;;5106081;28;20453;-84
2023/10/09 03:59:21;;;;;;;1.50;1.40;;;15.50;99.90;;;;;;5104836;28;20130;-87
2023/10/09 04:01:53;;;;;;;1.50;1.40;;;15.20;99.90;;;;;;5089246;28;20043;-84
2023/10/09 04:04:22;;;;;;;1.30;1.30;;;15.50;99.90;;;;;;5079674;28;20039;-86
2023/10/09 04:06:49;;;;;;;1.45;1.38;;;15.80;99.90;;;;;;5114281;28;20054;-82
2023/10/09 04:11:46;;;;;;;1.70;1.60;;;15.70;99.90;;;;;;5101989;28;20047;-84
2023/10/09 04:14:19;;;;;;;1.50;1.40;;;15.70;99.90;;;;;;5074220;28;20040;-84
2023/10/09 04:16:51;;;;;;;1.63;1.52;;;15.60;99.90;;;;;;5100815;28;20042;-84
2023/10/09 04:19:21;;;;;;;1.30;1.30;;;15.90;99.90;;;;;;5096922;28;20047;-84
2023/10/09 04:21:48;;;;;;;1.30;1.30;;;15.90;99.90;;;;;;5100104;28;20078;-85
2023/10/09 04:26:47;;;;;;;1.33;1.30;;;15.70;99.90;;;;;;5103225;28;20135;-85
2023/10/09 04:30:00;;;;;;;1.67;1.58;;;15.80;99.90;;;;;;5096478;28;20591;-86
2023/10/09 04:32:00;;;;;;;1.52;1.45;;;15.90;99.90;;;;;;5087153;28;20043;-85
2023/10/09 04:34:36;;;;;;;1.42;1.38;;;15.70;99.90;;;;;;5083851;28;20132;-87
2023/10/09 04:39:46;;;;;;;1.52;1.42;;;15.70;99.90;;;;;;5094594;28;20139;-84
2023/10/09 04:47:35;;;;;;;1.42;1.38;;;15.60;99.90;;;;;;5097787;28;20079;-85
2023/10/09 04:50:36;;;;;;;1.52;1.45;;;15.90;99.90;;;;;;5071322;28;20043;-85
2023/10/09 04:53:24;;;;;;;1.67;1.58;;;16.00;99.90;;;;;;5107654;28;20158;-84
2023/10/09 04:55:57;;;;;;;1.67;1.58;;;16.00;99.90;;;;;;5100788;28;20146;-83
2023/10/09 04:58:25;;;;;;;1.58;1.48;;;15.90;99.90;;;;;;5086259;28;20683;-84
2023/10/09 05:05:58;;;;;;;1.55;1.45;;;16.00;99.90;;;;;;5097583;27;20039;-84
2023/10/09 05:08:29;;;;;;;1.48;1.40;;;15.60;99.90;;;;;;5102724;27;20127;-84
2023/10/09 05:16:18;;;;;;;1.42;1.38;;;16.20;99.90;;;;;;5107209;27;20122;-88
2023/10/09 05:18:55;;;;;;;1.65;1.55;;;15.90;99.90;;;;;;5091824;27;20071;-86
2023/10/09 05:34:23;;;;;;;1.45;1.38;;;16.40;99.90;;;;;;5103391;27;20082;-86
2023/10/09 05:36:49;;;;;;;1.52;1.45;;;16.20;99.90;;;;;;5085849;28;20035;-84
2023/10/09 05:39:41;;;;;;;1.58;1.48;;;16.10;99.90;;;;;;5079509;28;20048;-84
2023/10/09 05:42:16;;;;;;;1.55;1.45;;;16.40;99.90;;;;;;5104399;27;20094;-87
2023/10/09 05:47:35;;;;;;;1.38;1.33;;;16.30;99.90;;;;;;5124422;27;20066;-86
2023/10/09 06:03:23;;;;;;;1.48;1.40;;;16.40;99.90;;;;;;5111492;27;20139;-85
2023/10/09 06:16:41;;;;;;;1.35;1.33;;;16.30;99.90;;;;;;5107308;27;20053;-86
2023/10/09 06:19:12;;;;;;;1.30;1.27;;;16.40;99.90;;;;;;5106809;27;20071;-85
2023/10/09 06:24:17;;;;;;;1.48;1.40;;;16.60;99.90;;;;;;5101071;27;20089;-85
2023/10/09 06:29:35;;;;;;;1.40;1.35;;;16.30;99.90;;;;;;5105268;27;20502;-84
2023/10/09 06:35:18;;;;;;;1.30;1.30;;;16.60;99.90;;;;;;5099171;27;20062;-85
2023/10/09 06:43:17;;;;;;;1.20;1.20;;;16.60;99.90;;;;;;5100823;27;20055;-85
2023/10/09 06:45:46;;;;;;;1.15;1.15;;;16.60;99.90;;;;;;5109000;27;20044;-85
2023/10/09 06:51:40;;;;;;;1.13;1.13;;;16.50;99.90;;;;;;5093438;27;20127;-86
2023/10/09 06:54:09;;;;;;;1.23;1.23;;;16.50;99.90;;;;;;5097370;27;20047;-84
2023/10/09 06:59:15;;;;;;;1.20;1.20;;;16.70;99.90;;;;;;5095745;27;20043;-88
2023/10/09 07:01:46;;;;;;;1.05;1.05;;;17.20;99.90;;;;;;5109294;27;20211;-87
2023/10/09 07:04:19;;;;;;;1.05;1.05;;;16.80;99.90;;;;;;5101962;27;20500;-85
2023/10/09 07:06:51;;;;;;;1.08;1.08;;;16.80;99.90;;;;;;5084537;28;20047;-86
2023/10/09 07:09:20;;;;;;;1.05;1.05;;;17.00;99.90;;;;;;5089033;28;20047;-86
2023/10/09 07:22:23;;;;;;;1.10;1.10;;;17.40;99.90;;;;;;5095132;27;20052;-85
2023/10/09 07:27:48;;;;;;;1.42;1.33;;;17.30;99.90;;;;;;5099806;27;20143;-87
2023/10/09 07:35:57;;;;;;;1.17;1.17;;;17.30;99.90;;;;;;5103506;27;20055;-86
2023/10/09 07:38:35;;;;;;;1.17;1.17;;;17.50;99.90;;;;;;5113286;27;20062;-87
2023/10/09 07:43:45;;;;;;;1.15;1.15;;;17.20;99.90;;;;;;5101650;27;20063;-87
2023/10/09 07:47:17;;;;;;;1.13;1.13;;;17.80;99.90;;;;;;5089135;27;20043;-86
2023/10/09 07:49:12;;;;;;;1.15;1.15;;;17.60;99.90;;;;;;5079824;27;20055;-85
2023/10/09 07:51:43;;;;;;;1.15;1.15;;;17.70;99.90;;;;;;5104364;27;20069;-86
2023/10/09 07:54:14;;;;;;;1.15;1.15;;;17.60;99.90;;;;;;5076662;28;20040;-86
2023/10/09 07:56:45;;;;;;;1.13;1.13;;;17.40;99.90;;;;;;5086027;28;20154;-87
2023/10/09 07:59:12;;;;;;;1.20;1.20;;;17.60;99.90;;;;;;5089999;28;20047;-85
2023/10/09 08:01:59;;;;;;;1.35;1.33;;;17.20;99.90;;;;;;5105312;27;20488;-88
2023/10/09 08:04:39;;;;;;;1.23;1.23;;;17.50;99.90;;;;;;5081627;28;20048;-87
2023/10/09 08:07:09;;;;;;;1.30;1.27;;;17.40;99.90;;;;;;5098551;28;20160;-86
2023/10/09 08:15:20;;;;;;;1.42;1.38;;;17.90;99.90;;;;;;5107870;28;20055;-84
2023/10/09 08:17:53;;;;;;;1.40;1.35;;;17.80;99.90;;;;;;5087545;28;20823;-87
2023/10/09 08:20:25;;;;;;;1.48;1.40;;;17.80;99.90;;;;;;5099557;28;20694;-86
2023/10/09 08:22:55;;;;;;;1.45;1.38;;;18.00;99.90;;;;;;5098848;28;20498;-85
2023/10/09 08:25:28;;;;;;;1.50;1.42;;;17.90;99.90;;;;;;5100495;28;20051;-86
2023/10/09 08:28:39;;;;;;;1.52;1.45;;;18.10;99.90;;;;;;5103773;28;20416;-86
2023/10/09 08:31:18;;;;;;;1.58;1.48;;;17.70;99.90;;;;;;5106085;28;20055;-85
2023/10/09 08:36:04;;;;;;;1.55;1.45;;;17.90;99.90;;;;;;5113547;28;20132;-86
2023/10/09 08:38:33;;;;;;;1.60;1.50;;;18.10;99.90;;;;;;5082397;28;20044;-86
2023/10/09 08:41:23;;;;;;;1.60;1.50;;;18.20;99.90;;;;;;5099341;28;20614;-87
2023/10/09 08:43:55;;;;;;;1.60;1.50;;;18.30;99.90;;;;;;5080196;27;20058;-88
2023/10/09 08:46:26;;;;;;;1.50;1.40;;;17.90;99.90;;;;;;5084138;28;20039;-91
2023/10/09 08:48:55;;;;;;;1.30;1.30;;;18.10;99.90;;;;;;5091032;27;20105;-85
2023/10/09 08:51:22;;;;;;;1.52;1.42;;;18.00;99.90;;;;;;5106241;27;20092;-88
2023/10/09 08:53:47;;;;;;;1.20;1.20;;;18.40;99.90;;;;;;5086917;27;20177;-86
2023/10/09 08:56:21;;;;;;;1.23;1.23;;;18.00;99.90;;;;;;5105080;27;20508;-86
2023/10/09 08:58:51;;;;;;;1.20;1.20;;;18.40;99.90;;;;;;5115229;27;20050;-88
2023/10/09 09:01:21;;;;;;;1.15;1.15;;;18.00;99.90;;;;;;5081014;28;20511;-88
2023/10/09 09:03:50;;;;;;;1.25;1.25;;;18.20;99.90;;;;;;5087900;27;20043;-86
2023/10/09 09:06:20;;;;;;;1.13;1.13;;;18.40;99.90;;;;;;5089230;27;20047;-87
2023/10/09 09:08:59;;;;;;;1.02;1.02;;;18.10;99.90;;;;;;5114350;27;20044;-85
2023/10/09 09:11:25;;;;;;;1.33;1.25;;;18.10;99.90;;;;;;5115450;27;20108;-85
2023/10/09 09:13:53;;;;;;;1.25;1.25;;;18.30;99.90;;;;;;5111196;27;20059;-83
2023/10/09 09:16:29;;;;;;;1.15;1.15;;;18.70;99.90;;;;;;5111636;27;20147;-85
2023/10/09 09:19:04;;;;;;;1.15;1.15;;;18.70;99.90;;;;;;5111701;27;20403;-86
2023/10/09 09:21:39;;;;;;;1.30;1.30;;;18.30;99.90;;;;;;5092045;28;20066;-90
2023/10/09 09:24:15;;;;;;;1.20;1.20;;;18.70;99.90;;;;;;5114741;27;20039;-84
2023/10/09 09:26:58;;;;;;;1.27;1.27;;;18.40;99.90;;;;;;5091267;27;20043;-87
2023/10/09 09:29:38;;;;;;;1.27;1.27;;;18.20;99.90;;;;;;5102614;27;20126;-87
2023/10/09 09:32:19;;;;;;;1.20;1.20;;;18.60;99.90;;;;;;5102156;27;20089;-83
2023/10/09 09:34:54;;;;;;;1.30;1.30;;;18.30;99.90;;;;;;5087275;28;20054;-87
2023/10/09 09:38:17;;;;;;;1.27;1.27;;;18.50;99.90;;;;;;5089519;28;20410;-86
2023/10/09 09:40:29;;;;;;;1.20;1.20;;;18.40;99.90;;;;;;5108669;27;20093;-87
2023/10/09 09:43:05;;;;;;;1.60;1.50;;;18.20;99.90;;;;;;5092175;28;20047;-85
2023/10/09 09:45:38;;;;;;;1.40;1.35;;;18.30;99.90;;;;;;5099625;27;20528;-93
2023/10/09 09:48:10;;;;;;;1.30;1.30;;;18.50;99.90;;;;;;5098298;27;20039;-90
2023/10/09 09:50:44;;;;;;;1.30;1.30;;;18.50;99.90;;;;;;5088566;28;20044;-90
2023/10/09 09:53:19;;;;;;;1.23;1.23;;;18.50;99.90;;;;;;5093354;27;20474;-93
2023/10/09 09:56:04;;;;;;;1.20;1.20;;;18.10;99.90;;;;;;5093504;27;20036;-92
2023/10/09 09:58:46;;;;;;;1.20;1.20;;;18.20;99.90;;;;;;5100056;27;20031;-92
2023/10/09 10:01:22;;;;;;;1.20;1.20;;;18.10;99.90;;;;;;5100902;27;20073;-91
2023/10/09 10:04:20;;;;;;;1.58;1.48;;;18.60;99.90;;;;;;5104688;27;20112;-90
2023/10/09 10:06:49;;;;;;;1.20;1.20;;;18.50;99.90;;;;;;5091964;27;20035;-88
2023/10/09 10:09:41;;;;;;;1.30;1.30;;;18.60;99.90;;;;;;5091586;27;20044;-95
2023/10/09 10:12:14;;;;;;;1.40;1.35;;;18.20;99.90;;;;;;5113604;27;20039;-91
2023/10/09 10:19:02;;;;;;;1.50;1.40;;;18.30;99.90;;;;;;5118072;27;20080;-96
2023/10/09 10:24:11;;;;;;;1.23;1.23;;;18.30;99.90;;;;;;5114979;27;20063;-90
2023/10/09 10:26:46;;;;;;;1.30;1.30;;;18.10;99.90;;;;;;5089504;28;20261;-94
2023/10/09 10:32:23;;;;;;;1.30;1.30;;;18.60;99.90;;;;;;5118846;27;20499;-91
2023/10/09 10:34:56;;;;;;;1.38;1.35;;;19.20;99.90;;;;;;5091223;27;20044;-93
2023/10/09 10:46:53;;;;;;;1.85;1.75;;;19.10;99.90;;;;;;5123842;27;20106;-92
2023/10/09 10:58:54;;;;;;;1.85;1.75;;;19.90;99.90;;;;;;5034890;28;20045;-91
2023/10/09 11:01:25;;;;;;;1.77;1.67;;;20.00;99.90;;;;;;5093155;27;20046;-91
2023/10/09 11:04:08;;;;;;;1.48;1.42;;;19.90;99.90;;;;;;5093017;27;20053;-96
2023/10/09 11:06:37;;;;;;;1.92;1.83;;;19.60;99.90;;;;;;5092210;28;20709;-95
2023/10/09 11:09:35;;;;;;;1.75;1.65;;;19.40;99.90;;;;;;5096863;27;20484;-89
2023/10/09 11:12:22;;;;;;;2.85;2.67;;;19.40;99.90;;;;;;5094088;27;21400;-91
2023/10/09 11:15:06;;;;;;;2.65;2.50;;;19.20;99.90;;;;;;5102779;27;20051;-94
2023/10/09 11:17:35;;;;;;;2.95;2.78;;;19.50;99.90;;;;;;5085410;27;20473;-90
2023/10/09 11:20:26;;;;;;;1.10;1.10;;;19.40;99.90;;;;;;5100607;27;20121;-92
2023/10/09 11:25:51;;;;;;;3.58;3.38;;;19.30;99.90;;;;;;5104498;27;20070;-91
2023/10/09 11:28:32;;;;;;;1.95;1.85;;;19.30;99.90;;;;;;5086784;27;20545;-90
2023/10/09 11:31:19;;;;;;;1.23;1.23;;;19.10;99.90;;;;;;5111128;27;20493;-92
2023/10/09 11:33:51;;;;;;;1.10;1.10;;;19.40;99.90;;;;;;5090028;27;20043;-93
2023/10/09 11:36:21;;;;;;;1.05;1.05;;;19.50;99.90;;;;;;5096204;27;20051;-86
2023/10/09 11:38:49;;;;;;;1.00;1.00;;;19.40;99.90;;;;;;5100142;27;20051;-90
2023/10/09 11:41:22;;;;;;;1.05;1.05;;;19.50;99.90;;;;;;5117395;27;20067;-87
2023/10/09 11:43:57;;;;;;;1.00;1.00;;;19.50;99.90;;;;;;5103716;27;20544;-89
2023/10/09 11:49:44;;;;;;;1.00;1.00;;;19.40;99.90;;;;;;5026407;28;20088;-86
2023/10/09 11:54:38;;;;;;;1.23;1.23;;;19.50;99.90;;;;;;5087755;28;20570;-86
2023/10/09 11:57:04;;;;;;;1.10;1.10;;;19.40;99.90;;;;;;5088145;28;20078;-90
2023/10/09 11:59:39;;;;;;;1.05;1.05;;;19.50;99.90;;;;;;5070835;28;20378;-87
2023/10/09 12:02:12;;;;;;;1.00;1.00;;;19.50;99.90;;;;;;5082919;28;20043;-87
2023/10/09 12:04:41;;;;;;;1.00;1.00;;;19.70;99.90;;;;;;5068482;28;20036;-85
2023/10/09 12:07:09;;;;;;;1.08;1.08;;;19.70;99.90;;;;;;5087324;28;20047;-84
2023/10/09 12:09:37;;;;;;;1.05;1.05;;;19.80;99.90;;;;;;5069972;28;20476;-84
2023/10/09 12:12:08;;;;;;;1.10;1.10;;;19.80;99.90;;;;;;5067822;28;20050;-83
2023/10/09 12:14:35;;;;;;;1.10;1.10;;;19.70;99.90;;;;;;5087114;28;20563;-87
2023/10/09 12:17:05;;;;;;;1.10;1.10;;;19.70;99.90;;;;;;5074217;28;20122;-86
2023/10/09 12:19:35;;;;;;;1.20;1.20;;;19.60;99.90;;;;;;5090578;28;20051;-85
2023/10/09 12:22:03;;;;;;;1.20;1.20;;;19.60;99.90;;;;;;5084698;28;20047;-83
2023/10/09 12:24:30;;;;;;;1.45;1.38;;;19.60;99.90;;;;;;5089340;28;20054;-83
2023/10/09 12:26:56;;;;;;;1.27;1.27;;;19.40;99.90;;;;;;5088639;28;20055;-85
2023/10/09 12:29:23;;;;;;;1.17;1.17;;;19.40;99.90;;;;;;5088804;28;20481;-86
2023/10/09 12:31:57;;;;;;;1.15;1.15;;;19.40;99.90;;;;;;5088614;28;20397;-85
2023/10/09 12:34:26;;;;;;;1.05;1.05;;;19.60;99.90;;;;;;5090007;28;20050;-87
2023/10/09 12:36:55;;;;;;;1.48;1.40;;;19.40;99.90;;;;;;5068548;28;20051;-84
2023/10/09 12:39:24;;;;;;;1.17;1.17;;;19.30;99.90;;;;;;5085022;28;20051;-87
2023/10/09 12:41:54;;;;;;;1.15;1.15;;;19.40;99.90;;;;;;5085123;28;20648;-85
2023/10/09 12:44:20;;;;;;;1.25;1.25;;;19.30;99.90;;;;;;5086354;28;20044;-85
2023/10/09 12:46:51;;;;;;;1.20;1.20;;;19.30;99.90;;;;;;5087999;28;20085;-86
2023/10/09 12:49:19;;;;;;;1.13;1.13;;;19.30;99.90;;;;;;5086194;28;20047;-84
2023/10/09 12:51:45;;;;;;;1.02;1.02;;;19.40;99.90;;;;;;5068185;28;20123;-84
2023/10/09 12:54:14;;;;;;;1.10;1.10;;;19.50;99.90;;;;;;5086261;28;20134;-87
2023/10/09 12:56:40;;;;;;;1.10;1.10;;;19.60;99.90;;;;;;5087019;28;20155;-85
2023/10/09 12:59:07;;;;;;;1.10;1.10;;;19.80;99.90;;;;;;5068674;28;20485;-88
2023/10/09 13:01:42;;;;;;;1.10;1.10;;;19.80;99.90;;;;;;5084917;28;20048;-85
2023/10/09 13:04:11;;;;;;;1.00;1.00;;;19.80;99.90;;;;;;5085783;28;20115;-85
2023/10/09 13:06:43;;;;;;;1.02;1.02;;;20.00;99.90;;;;;;5067734;28;20047;-85
2023/10/09 13:09:10;;;;;;;1.00;1.00;;;20.30;99.90;;;;;;5055524;28;20039;-85
2023/10/09 13:11:37;;;;;;;1.00;1.00;;;20.50;99.90;;;;;;5083541;28;20040;-87
2023/10/09 13:14:11;;;;;;;1.10;1.10;;;20.40;99.90;;;;;;5083861;28;20070;-84
2023/10/09 13:16:37;;;;;;;1.08;1.08;;;20.50;99.90;;;;;;5086232;28;20059;-86
2023/10/09 13:19:09;;;;;;;1.15;1.15;;;20.70;99.90;;;;;;5084894;28;20104;-86
2023/10/09 13:21:38;;;;;;;1.10;1.10;;;20.70;99.90;;;;;;5086758;28;20052;-87
2023/10/09 13:24:05;;;;;;;1.05;1.05;;;20.90;99.90;;;;;;5083443;28;20044;-83
2023/10/09 13:26:32;;;;;;;0.98;0.98;;;21.00;99.90;;;;;;5070940;28;20428;-86
2023/10/09 13:28:59;;;;;;;1.00;1.00;;;21.20;99.90;;;;;;5085193;28;20154;-87
2023/10/09 13:31:26;;;;;;;1.10;1.10;;;21.10;99.90;;;;;;5088936;28;20044;-86
2023/10/09 13:33:55;;;;;;;0.93;0.93;;;20.80;99.90;;;;;;5065975;28;20051;-87
2023/10/09 13:36:31;;;;;;;1.50;1.40;;;20.70;99.90;;;;;;5084336;28;20050;-84
2023/10/09 13:39:23;;;;;;;1.10;1.10;;;20.60;99.90;;;;;;5084164;28;20044;-90
2023/10/09 13:42:01;;;;;;;1.55;1.45;;;20.70;99.90;;;;;;5083382;28;20554;-89
2023/10/09 13:44:28;;;;;;;1.58;1.48;;;20.60;99.90;;;;;;5087294;28;20080;-86
2023/10/09 13:46:58;;;;;;;1.65;1.55;;;20.30;99.90;;;;;;5087524;28;20039;-86
2023/10/09 13:49:29;;;;;;;1.45;1.38;;;20.30;99.90;;;;;;5085989;28;20052;-85
2023/10/09 13:51:56;;;;;;;0.95;0.95;;;20.30;99.90;;;;;;5086547;28;20043;-86
2023/10/09 13:54:39;;;;;;;1.23;1.23;;;20.20;99.90;;;;;;5064407;28;20047;-86
2023/10/09 13:57:05;;;;;;;1.67;1.58;;;20.10;99.90;;;;;;5104572;28;20100;-87
2023/10/09 13:59:34;;;;;;;1.05;1.05;;;20.10;99.90;;;;;;5083597;28;20047;-83
2023/10/09 14:02:02;;;;;;;1.20;1.20;;;20.20;99.90;;;;;;5082896;28;20054;-85
2023/10/09 14:04:28;;;;;;;1.00;1.00;;;20.10;99.90;;;;;;5085331;28;20082;-87
2023/10/09 14:06:58;;;;;;;1.10;1.10;;;20.20;99.90;;;;;;5067311;28;20504;-85
2023/10/09 14:09:28;;;;;;;1.05;1.05;;;20.10;99.90;;;;;;5066809;28;20540;-85
2023/10/09 14:12:08;;;;;;;0.80;0.80;;;20.50;99.90;;;;;;5085081;28;20048;-85
2023/10/09 14:14:46;;;;;;;0.90;0.90;;;20.60;99.90;;;;;;5083517;28;20492;-86
2023/10/09 14:17:13;;;;;;;0.88;0.88;;;20.60;99.90;;;;;;5069069;28;20123;-85
2023/10/09 14:19:49;;;;;;;0.90;0.90;;;21.00;99.90;;;;;;5077881;28;20653;-85
2023/10/09 14:22:16;;;;;;;0.88;0.88;;;21.20;99.90;;;;;;5077767;28;20378;-86
2023/10/09 14:24:45;;;;;;;1.20;1.20;;;21.00;99.90;;;;;;5080440;28;20075;-88
2023/10/09 14:27:17;;;;;;;1.17;1.17;;;20.70;99.90;;;;;;5082241;28;20055;-87
2023/10/09 14:29:49;;;;;;;1.15;1.15;;;20.70;99.90;;;;;;5080137;28;20044;-85
2023/10/09 14:32:16;;;;;;;1.13;1.13;;;20.70;99.90;;;;;;5082106;28;20494;-86
2023/10/09 14:34:47;;;;;;;1.20;1.20;;;20.80;99.90;;;;;;5082915;28;20073;-86
2023/10/09 14:37:14;;;;;;;1.58;1.50;;;20.70;99.90;;;;;;5081868;28;20086;-83
2023/10/09 14:39:41;;;;;;;1.23;1.23;;;20.60;99.90;;;;;;5050961;28;20043;-86
2023/10/09 14:42:10;;;;;;;1.35;1.33;;;20.60;99.90;;;;;;5084551;28;20055;-86
2023/10/09 14:44:40;;;;;;;1.38;1.35;;;20.50;99.90;;;;;;5066190;28;20048;-83
2023/10/09 14:47:06;;;;;;;1.67;1.58;;;20.30;99.90;;;;;;5101310;28;20275;-84
2023/10/09 14:49:43;;;;;;;1.67;1.58;;;20.20;99.90;;;;;;5067270;28;20497;-92
2023/10/09 14:52:10;;;;;;;1.50;1.42;;;19.90;99.90;;;;;;5067489;28;20631;-85
2023/10/09 14:54:39;;;;;;;1.55;1.45;;;20.00;99.90;;;;;;5086063;28;20039;-85
2023/10/09 14:57:07;;;;;;;1.55;1.45;;;19.80;99.90;;;;;;5077231;28;20523;-91
2023/10/09 14:59:33;;;;;;;1.40;1.35;;;19.70;99.90;;;;;;5079470;28;20040;-84
2023/10/09 15:01:59;;;;;;;1.35;1.33;;;19.70;99.90;;;;;;5077092;28;20036;-86
2023/10/09 15:04:25;;;;;;;1.23;1.23;;;19.50;99.90;;;;;;5083155;28;20661;-83
2023/10/09 15:06:52;;;;;;;1.17;1.17;;;19.50;99.90;;;;;;5082148;28;20040;-84
2023/10/09 15:09:29;;;;;;;1.05;1.05;;;19.50;99.90;;;;;;5060997;28;20044;-84
2023/10/09 15:11:55;;;;;;;1.10;1.10;;;19.30;99.90;;;;;;5079046;28;20036;-83
2023/10/09 15:14:21;;;;;;;1.05;1.05;;;19.40;99.90;;;;;;5082120;28;20137;-85
2023/10/09 15:16:47;;;;;;;1.10;1.10;;;19.30;99.90;;;;;;5079769;28;20059;-84
2023/10/09 15:19:14;;;;;;;1.20;1.20;;;19.20;99.90;;;;;;5065954;28;20050;-85
2023/10/09 15:21:46;;;;;;;1.15;1.15;;;19.20;99.90;;;;;;5065759;28;20043;-86
2023/10/09 15:24:19;;;;;;;1.05;1.05;;;19.20;99.90;;;;;;5062824;28;20543;-84
2023/10/09 15:26:57;;;;;;;1.08;1.08;;;19.10;99.90;;;;;;5078229;28;20048;-83
2023/10/09 15:29:28;;;;;;;1.23;1.23;;;19.00;99.90;;;;;;5073539;28;20069;-85
2023/10/09 15:32:04;;;;;;;0.98;0.98;;;19.10;99.90;;;;;;5079714;28;20067;-86
2023/10/09 15:34:36;;;;;;;1.00;1.00;;;19.00;99.90;;;;;;5076721;28;20080;-85
2023/10/09 15:37:03;;;;;;;0.98;0.98;;;19.10;99.90;;;;;;5081961;28;20056;-84
2023/10/09 15:39:30;;;;;;;1.00;1.00;;;19.00;99.90;;;;;;5077133;28;20071;-83
2023/10/09 15:41:56;;;;;;;1.08;1.08;;;18.90;99.90;;;;;;5100139;28;20519;-83
2023/10/09 15:44:24;;;;;;;1.05;1.05;;;19.00;99.90;;;;;;5083772;28;20078;-85
2023/10/09 15:46:57;;;;;;;0.98;0.98;;;19.00;99.90;;;;;;5062137;28;20464;-83
2023/10/09 15:49:22;;;;;;;0.93;0.93;;;18.90;99.90;;;;;;5061494;28;20040;-86
2023/10/09 15:51:48;;;;;;;0.98;0.98;;;19.00;99.90;;;;;;5080817;28;20051;-82
2023/10/09 15:54:19;;;;;;;0.90;0.90;;;18.90;99.90;;;;;;5083006;28;20047;-84
2023/10/09 15:56:45;;;;;;;0.98;0.98;;;18.90;99.90;;;;;;5083347;28;20051;-84
2023/10/09 15:59:11;;;;;;;0.95;0.95;;;18.80;99.90;;;;;;5083349;28;20519;-85